sensor_id;sensor_type;location;lat;lon;timestamp;pressure;altitude;pressure_sealevel;temperature
20058;BMP180;10189;49.546;7.906;2023-09-08T00:00:00;98363.00;;;16.90
20058;BMP180;10189;49.546;7.906;2023-09-08T00:02:28;98356.00;;;16.90
20058;BMP180;10189;49.546;7.906;2023-09-08T00:04:54;98359.00;;;16.90
20058;BMP180;10189;49.546;7.906;2023-09-08T00:07:20;98363.00;;;16.90
20058;BMP180;10189;49.546;7.906;2023-09-08T00:09:46;98357.00;;;16.90
20058;BMP180;10189;49.546;7.906;2023-09-08T00:12:13;98359.00;;;16.90
20058;BMP180;10189;49.546;7.906;2023-09-08T00:14:39;98354.00;;;16.80
20058;BMP180;10189;49.546;7.906;2023-09-08T00:17:05;98354.00;;;16.80
20058;BMP180;10189;49.546;7.906;2023-09-08T00:19:31;98355.00;;;16.70
20058;BMP180;10189;49.546;7.906;2023-09-08T00:21:57;98350.00;;;16.70
20058;BMP180;10189;49.546;7.906;2023-09-08T00:24:24;98338.00;;;16.70
20058;BMP180;10189;49.546;7.906;2023-09-08T00:26:50;98341.00;;;16.70
20058;BMP180;10189;49.546;7.906;2023-09-08T00:29:16;98341.00;;;16.60
20058;BMP180;10189;49.546;7.906;2023-09-08T00:31:42;98334.00;;;16.60
20058;BMP180;10189;49.546;7.906;2023-09-08T00:34:07;98338.00;;;16.60
20058;BMP180;10189;49.546;7.906;2023-09-08T00:36:33;98334.00;;;16.70
20058;BMP180;10189;49.546;7.906;2023-09-08T00:38:59;98332.00;;;16.60
20058;BMP180;10189;49.546;7.906;2023-09-08T00:41:25;98340.00;;;16.60
20058;BMP180;10189;49.546;7.906;2023-09-08T00:43:51;98339.00;;;16.60
20058;BMP180;10189;49.546;7.906;2023-09-08T00:46:18;98340.00;;;16.60
20058;BMP180;10189;49.546;7.906;2023-09-08T00:48:44;98348.00;;;16.50
20058;BMP180;10189;49.546;7.906;2023-09-08T00:51:10;98349.00;;;16.50
20058;BMP180;10189;49.546;7.906;2023-09-08T00:53:37;98336.00;;;16.50
20058;BMP180;10189;49.546;7.906;2023-09-08T00:56:04;98340.00;;;16.40
20058;BMP180;10189;49.546;7.906;2023-09-08T00:58:30;98337.00;;;16.40
20058;BMP180;10189;49.546;7.906;2023-09-08T01:00:56;98341.00;;;16.40
20058;BMP180;10189;49.546;7.906;2023-09-08T01:03:25;98342.00;;;16.30
20058;BMP180;10189;49.546;7.906;2023-09-08T01:05:52;98335.00;;;16.30
20058;BMP180;10189;49.546;7.906;2023-09-08T01:08:18;98336.00;;;16.30
20058;BMP180;10189;49.546;7.906;2023-09-08T01:10:45;98341.00;;;16.30
20058;BMP180;10189;49.546;7.906;2023-09-08T01:13:11;98337.00;;;16.40
20058;BMP180;10189;49.546;7.906;2023-09-08T01:15:37;98339.00;;;16.50
20058;BMP180;10189;49.546;7.906;2023-09-08T01:18:03;98338.00;;;16.50
20058;BMP180;10189;49.546;7.906;2023-09-08T01:26:51;98333.00;;;16.40
20058;BMP180;10189;49.546;7.906;2023-09-08T01:29:18;98340.00;;;16.30
20058;BMP180;10189;49.546;7.906;2023-09-08T01:31:45;98341.00;;;16.30
20058;BMP180;10189;49.546;7.906;2023-09-08T01:34:12;98342.00;;;16.30
20058;BMP180;10189;49.546;7.906;2023-09-08T01:36:39;98347.00;;;16.20
20058;BMP180;10189;49.546;7.906;2023-09-08T01:39:05;98341.00;;;16.10
20058;BMP180;10189;49.546;7.906;2023-09-08T01:41:31;98343.00;;;16.00
20058;BMP180;10189;49.546;7.906;2023-09-08T01:43:59;98341.00;;;15.90
20058;BMP180;10189;49.546;7.906;2023-09-08T01:46:25;98339.00;;;15.80
20058;BMP180;10189;49.546;7.906;2023-09-08T01:48:50;98346.00;;;15.70
20058;BMP180;10189;49.546;7.906;2023-09-08T01:51:16;98342.00;;;15.70
20058;BMP180;10189;49.546;7.906;2023-09-08T01:53:42;98341.00;;;15.70
20058;BMP180;10189;49.546;7.906;2023-09-08T01:56:09;98337.00;;;15.60
20058;BMP180;10189;49.546;7.906;2023-09-08T01:58:35;98339.00;;;15.60
20058;BMP180;10189;49.546;7.906;2023-09-08T02:01:01;98342.00;;;15.70
20058;BMP180;10189;49.546;7.906;2023-09-08T02:03:32;98337.00;;;15.70
20058;BMP180;10189;49.546;7.906;2023-09-08T02:05:59;98337.00;;;15.70
20058;BMP180;10189;49.546;7.906;2023-09-08T02:08:25;98341.00;;;15.60
20058;BMP180;10189;49.546;7.906;2023-09-08T02:10:51;98334.00;;;15.50
20058;BMP180;10189;49.546;7.906;2023-09-08T02:13:17;98337.00;;;15.40
20058;BMP180;10189;49.546;7.906;2023-09-08T02:15:43;98337.00;;;15.40
20058;BMP180;10189;49.546;7.906;2023-09-08T02:18:09;98337.00;;;15.30
20058;BMP180;10189;49.546;7.906;2023-09-08T02:20:35;98334.00;;;15.30
20058;BMP180;10189;49.546;7.906;2023-09-08T02:23:06;98334.00;;;15.30
20058;BMP180;10189;49.546;7.906;2023-09-08T02:25:33;98336.00;;;15.30
20058;BMP180;10189;49.546;7.906;2023-09-08T02:27:59;98336.00;;;15.30
20058;BMP180;10189;49.546;7.906;2023-09-08T02:30:25;98326.00;;;15.30
20058;BMP180;10189;49.546;7.906;2023-09-08T02:32:52;98339.00;;;15.30
20058;BMP180;10189;49.546;7.906;2023-09-08T02:35:17;98341.00;;;15.40
20058;BMP180;10189;49.546;7.906;2023-09-08T02:37:43;98342.00;;;15.30
20058;BMP180;10189;49.546;7.906;2023-09-08T02:40:09;98342.00;;;15.40
20058;BMP180;10189;49.546;7.906;2023-09-08T02:42:37;98337.00;;;15.40
20058;BMP180;10189;49.546;7.906;2023-09-08T02:45:03;98342.00;;;15.40
20058;BMP180;10189;49.546;7.906;2023-09-08T02:47:29;98342.00;;;15.30
20058;BMP180;10189;49.546;7.906;2023-09-08T02:49:57;98347.00;;;15.40
20058;BMP180;10189;49.546;7.906;2023-09-08T02:52:23;98340.00;;;15.30
20058;BMP180;10189;49.546;7.906;2023-09-08T02:54:49;98343.00;;;15.30
20058;BMP180;10189;49.546;7.906;2023-09-08T02:57:14;98346.00;;;15.20
20058;BMP180;10189;49.546;7.906;2023-09-08T02:59:40;98332.00;;;15.20
20058;BMP180;10189;49.546;7.906;2023-09-08T03:02:07;98352.00;;;15.20
20058;BMP180;10189;49.546;7.906;2023-09-08T03:04:33;98337.00;;;15.20
20058;BMP180;10189;49.546;7.906;2023-09-08T03:06:59;98343.00;;;15.20
20058;BMP180;10189;49.546;7.906;2023-09-08T03:09:25;98345.00;;;15.10
20058;BMP180;10189;49.546;7.906;2023-09-08T03:11:51;98340.00;;;15.10
20058;BMP180;10189;49.546;7.906;2023-09-08T03:14:17;98334.00;;;15.20
20058;BMP180;10189;49.546;7.906;2023-09-08T03:16:42;98338.00;;;15.20
20058;BMP180;10189;49.546;7.906;2023-09-08T03:19:08;98342.00;;;15.10
20058;BMP180;10189;49.546;7.906;2023-09-08T03:21:34;98344.00;;;15.20
20058;BMP180;10189;49.546;7.906;2023-09-08T03:24:00;98337.00;;;15.20
20058;BMP180;10189;49.546;7.906;2023-09-08T03:26:26;98343.00;;;15.20
20058;BMP180;10189;49.546;7.906;2023-09-08T03:28:52;98341.00;;;15.20
20058;BMP180;10189;49.546;7.906;2023-09-08T03:31:18;98339.00;;;15.30
20058;BMP180;10189;49.546;7.906;2023-09-08T03:33:44;98336.00;;;15.30
20058;BMP180;10189;49.546;7.906;2023-09-08T03:36:11;98336.00;;;15.30
20058;BMP180;10189;49.546;7.906;2023-09-08T03:38:36;98336.00;;;15.30
20058;BMP180;10189;49.546;7.906;2023-09-08T03:41:03;98340.00;;;15.30
20058;BMP180;10189;49.546;7.906;2023-09-08T03:43:29;98340.00;;;15.30
20058;BMP180;10189;49.546;7.906;2023-09-08T03:45:56;98336.00;;;15.30
20058;BMP180;10189;49.546;7.906;2023-09-08T03:48:22;98333.00;;;15.30
20058;BMP180;10189;49.546;7.906;2023-09-08T03:50:48;98333.00;;;15.20
20058;BMP180;10189;49.546;7.906;2023-09-08T03:53:14;98338.00;;;15.10
20058;BMP180;10189;49.546;7.906;2023-09-08T03:55:40;98339.00;;;15.10
20058;BMP180;10189;49.546;7.906;2023-09-08T03:58:06;98341.00;;;15.00
20058;BMP180;10189;49.546;7.906;2023-09-08T04:00:32;98332.00;;;15.00
20058;BMP180;10189;49.546;7.906;2023-09-08T04:02:58;98341.00;;;14.90
20058;BMP180;10189;49.546;7.906;2023-09-08T04:05:24;98335.00;;;14.90
20058;BMP180;10189;49.546;7.906;2023-09-08T04:07:49;98336.00;;;14.90
20058;BMP180;10189;49.546;7.906;2023-09-08T04:10:17;98335.00;;;14.90
20058;BMP180;10189;49.546;7.906;2023-09-08T04:12:42;98344.00;;;14.90
20058;BMP180;10189;49.546;7.906;2023-09-08T04:15:09;98335.00;;;14.80
20058;BMP180;10189;49.546;7.906;2023-09-08T04:17:36;98348.00;;;14.80
20058;BMP180;10189;49.546;7.906;2023-09-08T04:20:07;98340.00;;;14.80
20058;BMP180;10189;49.546;7.906;2023-09-08T04:22:34;98343.00;;;14.90
20058;BMP180;10189;49.546;7.906;2023-09-08T04:25:02;98339.00;;;14.90
20058;BMP180;10189;49.546;7.906;2023-09-08T04:27:28;98345.00;;;14.80
20058;BMP180;10189;49.546;7.906;2023-09-08T04:29:54;98339.00;;;14.80
20058;BMP180;10189;49.546;7.906;2023-09-08T04:32:20;98353.00;;;14.80
20058;BMP180;10189;49.546;7.906;2023-09-08T04:34:46;98344.00;;;14.80
20058;BMP180;10189;49.546;7.906;2023-09-08T04:37:12;98348.00;;;14.80
20058;BMP180;10189;49.546;7.906;2023-09-08T04:39:39;98345.00;;;14.70
20058;BMP180;10189;49.546;7.906;2023-09-08T04:42:06;98354.00;;;14.70
20058;BMP180;10189;49.546;7.906;2023-09-08T04:44:32;98351.00;;;14.70
20058;BMP180;10189;49.546;7.906;2023-09-08T04:46:59;98353.00;;;14.70
20058;BMP180;10189;49.546;7.906;2023-09-08T04:49:25;98357.00;;;14.70
20058;BMP180;10189;49.546;7.906;2023-09-08T04:51:53;98357.00;;;14.80
20058;BMP180;10189;49.546;7.906;2023-09-08T04:54:19;98349.00;;;14.70
20058;BMP180;10189;49.546;7.906;2023-09-08T04:56:47;98353.00;;;14.70
20058;BMP180;10189;49.546;7.906;2023-09-08T04:59:13;98357.00;;;14.70
20058;BMP180;10189;49.546;7.906;2023-09-08T05:01:39;98353.00;;;14.70
20058;BMP180;10189;49.546;7.906;2023-09-08T05:04:07;98355.00;;;14.70
20058;BMP180;10189;49.546;7.906;2023-09-08T05:06:33;98358.00;;;14.80
20058;BMP180;10189;49.546;7.906;2023-09-08T05:08:59;98352.00;;;14.80
20058;BMP180;10189;49.546;7.906;2023-09-08T05:11:27;98354.00;;;14.80
20058;BMP180;10189;49.546;7.906;2023-09-08T05:13:53;98354.00;;;14.80
20058;BMP180;10189;49.546;7.906;2023-09-08T05:16:19;98349.00;;;14.80
20058;BMP180;10189;49.546;7.906;2023-09-08T05:18:52;98354.00;;;14.90
20058;BMP180;10189;49.546;7.906;2023-09-08T05:21:19;98353.00;;;14.90
20058;BMP180;10189;49.546;7.906;2023-09-08T05:23:45;98358.00;;;15.00
20058;BMP180;10189;49.546;7.906;2023-09-08T05:26:11;98361.00;;;15.00
20058;BMP180;10189;49.546;7.906;2023-09-08T05:28:38;98358.00;;;15.10
20058;BMP180;10189;49.546;7.906;2023-09-08T05:31:03;98366.00;;;15.10
20058;BMP180;10189;49.546;7.906;2023-09-08T05:33:30;98368.00;;;15.10
20058;BMP180;10189;49.546;7.906;2023-09-08T05:35:56;98373.00;;;15.10
20058;BMP180;10189;49.546;7.906;2023-09-08T05:38:22;98367.00;;;15.20
20058;BMP180;10189;49.546;7.906;2023-09-08T05:40:47;98364.00;;;15.40
20058;BMP180;10189;49.546;7.906;2023-09-08T05:43:14;98367.00;;;15.60
20058;BMP180;10189;49.546;7.906;2023-09-08T05:45:40;98363.00;;;15.80
20058;BMP180;10189;49.546;7.906;2023-09-08T05:48:06;98362.00;;;15.90
20058;BMP180;10189;49.546;7.906;2023-09-08T05:50:32;98364.00;;;16.10
20058;BMP180;10189;49.546;7.906;2023-09-08T05:52:58;98365.00;;;16.30
20058;BMP180;10189;49.546;7.906;2023-09-08T05:55:24;98360.00;;;16.40
20058;BMP180;10189;49.546;7.906;2023-09-08T05:57:50;98365.00;;;16.50
20058;BMP180;10189;49.546;7.906;2023-09-08T06:00:17;98358.00;;;16.80
20058;BMP180;10189;49.546;7.906;2023-09-08T06:02:47;98355.00;;;16.90
20058;BMP180;10189;49.546;7.906;2023-09-08T06:05:16;98367.00;;;17.10
20058;BMP180;10189;49.546;7.906;2023-09-08T06:07:41;98355.00;;;17.20
20058;BMP180;10189;49.546;7.906;2023-09-08T06:10:09;98353.00;;;17.40
20058;BMP180;10189;49.546;7.906;2023-09-08T06:12:36;98353.00;;;17.60
20058;BMP180;10189;49.546;7.906;2023-09-08T06:15:03;98344.00;;;17.90
20058;BMP180;10189;49.546;7.906;2023-09-08T06:17:30;98350.00;;;18.00
20058;BMP180;10189;49.546;7.906;2023-09-08T06:19:56;98341.00;;;18.10
20058;BMP180;10189;49.546;7.906;2023-09-08T06:22:22;98348.00;;;18.10
20058;BMP180;10189;49.546;7.906;2023-09-08T06:24:49;98349.00;;;18.10
20058;BMP180;10189;49.546;7.906;2023-09-08T06:27:16;98349.00;;;18.10
20058;BMP180;10189;49.546;7.906;2023-09-08T06:29:42;98354.00;;;18.30
20058;BMP180;10189;49.546;7.906;2023-09-08T06:32:11;98343.00;;;18.20
20058;BMP180;10189;49.546;7.906;2023-09-08T06:34:39;98347.00;;;18.20
20058;BMP180;10189;49.546;7.906;2023-09-08T06:37:05;98364.00;;;18.30
20058;BMP180;10189;49.546;7.906;2023-09-08T06:39:32;98355.00;;;18.40
20058;BMP180;10189;49.546;7.906;2023-09-08T06:41:59;98356.00;;;18.50
20058;BMP180;10189;49.546;7.906;2023-09-08T06:44:25;98356.00;;;18.50
20058;BMP180;10189;49.546;7.906;2023-09-08T06:46:51;98354.00;;;18.50
20058;BMP180;10189;49.546;7.906;2023-09-08T06:49:17;98364.00;;;18.50
20058;BMP180;10189;49.546;7.906;2023-09-08T06:51:43;98358.00;;;18.60
20058;BMP180;10189;49.546;7.906;2023-09-08T06:54:09;98351.00;;;18.60
20058;BMP180;10189;49.546;7.906;2023-09-08T06:56:38;98354.00;;;18.60
20058;BMP180;10189;49.546;7.906;2023-09-08T06:59:06;98356.00;;;18.50
20058;BMP180;10189;49.546;7.906;2023-09-08T07:01:32;98351.00;;;18.70
20058;BMP180;10189;49.546;7.906;2023-09-08T07:03:59;98357.00;;;18.80
20058;BMP180;10189;49.546;7.906;2023-09-08T07:06:26;98355.00;;;19.00
20058;BMP180;10189;49.546;7.906;2023-09-08T07:08:52;98349.00;;;19.40
20058;BMP180;10189;49.546;7.906;2023-09-08T07:11:19;98357.00;;;19.60
20058;BMP180;10189;49.546;7.906;2023-09-08T07:13:46;98359.00;;;19.80
20058;BMP180;10189;49.546;7.906;2023-09-08T07:16:12;98356.00;;;20.00
20058;BMP180;10189;49.546;7.906;2023-09-08T07:18:39;98348.00;;;20.10
20058;BMP180;10189;49.546;7.906;2023-09-08T07:21:06;98355.00;;;20.20
20058;BMP180;10189;49.546;7.906;2023-09-08T07:23:32;98355.00;;;20.20
20058;BMP180;10189;49.546;7.906;2023-09-08T07:25:58;98360.00;;;20.60
20058;BMP180;10189;49.546;7.906;2023-09-08T07:28:28;98354.00;;;20.60
20058;BMP180;10189;49.546;7.906;2023-09-08T07:31:03;98348.00;;;20.80
20058;BMP180;10189;49.546;7.906;2023-09-08T07:33:31;98355.00;;;21.00
20058;BMP180;10189;49.546;7.906;2023-09-08T07:35:57;98353.00;;;21.10
20058;BMP180;10189;49.546;7.906;2023-09-08T07:38:23;98355.00;;;21.20
20058;BMP180;10189;49.546;7.906;2023-09-08T07:40:49;98357.00;;;21.50
20058;BMP180;10189;49.546;7.906;2023-09-08T07:43:15;98350.00;;;21.60
20058;BMP180;10189;49.546;7.906;2023-09-08T07:45:42;98356.00;;;21.90
20058;BMP180;10189;49.546;7.906;2023-09-08T07:48:08;98351.00;;;21.80
20058;BMP180;10189;49.546;7.906;2023-09-08T07:50:34;98360.00;;;22.10
20058;BMP180;10189;49.546;7.906;2023-09-08T07:53:00;98351.00;;;22.30
20058;BMP180;10189;49.546;7.906;2023-09-08T07:55:26;98364.00;;;22.50
20058;BMP180;10189;49.546;7.906;2023-09-08T07:57:53;98360.00;;;22.60
20058;BMP180;10189;49.546;7.906;2023-09-08T08:00:20;98364.00;;;22.80
20058;BMP180;10189;49.546;7.906;2023-09-08T08:02:49;98360.00;;;23.00
20058;BMP180;10189;49.546;7.906;2023-09-08T08:05:15;98361.00;;;23.20
20058;BMP180;10189;49.546;7.906;2023-09-08T08:07:43;98359.00;;;23.30
20058;BMP180;10189;49.546;7.906;2023-09-08T08:10:11;98358.00;;;23.50
20058;BMP180;10189;49.546;7.906;2023-09-08T08:12:38;98361.00;;;23.70
20058;BMP180;10189;49.546;7.906;2023-09-08T08:15:05;98352.00;;;23.80
20058;BMP180;10189;49.546;7.906;2023-09-08T08:17:31;98348.00;;;23.80
20058;BMP180;10189;49.546;7.906;2023-09-08T08:19:58;98351.00;;;23.90
20058;BMP180;10189;49.546;7.906;2023-09-08T08:22:26;98354.00;;;24.10
20058;BMP180;10189;49.546;7.906;2023-09-08T08:24:52;98352.00;;;24.30
20058;BMP180;10189;49.546;7.906;2023-09-08T08:27:18;98354.00;;;24.40
20058;BMP180;10189;49.546;7.906;2023-09-08T08:29:44;98347.00;;;24.60
20058;BMP180;10189;49.546;7.906;2023-09-08T08:32:10;98346.00;;;24.60
20058;BMP180;10189;49.546;7.906;2023-09-08T08:34:38;98340.00;;;24.60
20058;BMP180;10189;49.546;7.906;2023-09-08T08:37:04;98340.00;;;24.70
20058;BMP180;10189;49.546;7.906;2023-09-08T08:39:29;98347.00;;;24.70
20058;BMP180;10189;49.546;7.906;2023-09-08T08:41:55;98350.00;;;24.90
20058;BMP180;10189;49.546;7.906;2023-09-08T08:44:22;98341.00;;;24.60
20058;BMP180;10189;49.546;7.906;2023-09-08T08:46:50;98351.00;;;24.80
20058;BMP180;10189;49.546;7.906;2023-09-08T08:49:16;98338.00;;;24.80
20058;BMP180;10189;49.546;7.906;2023-09-08T08:51:47;98343.00;;;24.80
20058;BMP180;10189;49.546;7.906;2023-09-08T08:54:15;98345.00;;;24.80
20058;BMP180;10189;49.546;7.906;2023-09-08T08:56:42;98347.00;;;24.90
20058;BMP180;10189;49.546;7.906;2023-09-08T08:59:10;98345.00;;;25.10
20058;BMP180;10189;49.546;7.906;2023-09-08T09:01:37;98345.00;;;25.40
20058;BMP180;10189;49.546;7.906;2023-09-08T09:04:05;98348.00;;;25.40
20058;BMP180;10189;49.546;7.906;2023-09-08T09:06:32;98349.00;;;25.50
20058;BMP180;10189;49.546;7.906;2023-09-08T09:08:59;98359.00;;;25.70
20058;BMP180;10189;49.546;7.906;2023-09-08T09:11:26;98359.00;;;25.60
20058;BMP180;10189;49.546;7.906;2023-09-08T09:13:52;98353.00;;;25.50
20058;BMP180;10189;49.546;7.906;2023-09-08T09:16:18;98351.00;;;25.60
20058;BMP180;10189;49.546;7.906;2023-09-08T09:18:59;98362.00;;;25.60
20058;BMP180;10189;49.546;7.906;2023-09-08T09:21:47;98356.00;;;25.50
20058;BMP180;10189;49.546;7.906;2023-09-08T09:24:15;98359.00;;;25.60
20058;BMP180;10189;49.546;7.906;2023-09-08T09:26:41;98355.00;;;25.90
20058;BMP180;10189;49.546;7.906;2023-09-08T09:29:14;98356.00;;;26.00
20058;BMP180;10189;49.546;7.906;2023-09-08T09:34:21;98361.00;;;26.30
20058;BMP180;10189;49.546;7.906;2023-09-08T09:36:51;98344.00;;;26.40
20058;BMP180;10189;49.546;7.906;2023-09-08T09:39:20;98350.00;;;26.50
20058;BMP180;10189;49.546;7.906;2023-09-08T09:41:57;98338.00;;;26.50
20058;BMP180;10189;49.546;7.906;2023-09-08T09:44:24;98345.00;;;26.40
20058;BMP180;10189;49.546;7.906;2023-09-08T09:46:54;98347.00;;;26.20
20058;BMP180;10189;49.546;7.906;2023-09-08T09:49:21;98350.00;;;26.50
20058;BMP180;10189;49.546;7.906;2023-09-08T09:51:49;98343.00;;;26.60
20058;BMP180;10189;49.546;7.906;2023-09-08T09:54:17;98344.00;;;26.60
20058;BMP180;10189;49.546;7.906;2023-09-08T09:56:44;98343.00;;;26.80
20058;BMP180;10189;49.546;7.906;2023-09-08T09:59:12;98350.00;;;26.90
20058;BMP180;10189;49.546;7.906;2023-09-08T10:01:40;98340.00;;;26.80
20058;BMP180;10189;49.546;7.906;2023-09-08T10:04:07;98341.00;;;26.90
20058;BMP180;10189;49.546;7.906;2023-09-08T10:06:37;98347.00;;;26.90
20058;BMP180;10189;49.546;7.906;2023-09-08T10:09:05;98345.00;;;26.90
20058;BMP180;10189;49.546;7.906;2023-09-08T10:11:45;98348.00;;;27.00
20058;BMP180;10189;49.546;7.906;2023-09-08T10:14:16;98334.00;;;27.10
20058;BMP180;10189;49.546;7.906;2023-09-08T10:16:46;98339.00;;;27.20
20058;BMP180;10189;49.546;7.906;2023-09-08T10:19:16;98338.00;;;27.20
20058;BMP180;10189;49.546;7.906;2023-09-08T10:21:46;98333.00;;;27.20
20058;BMP180;10189;49.546;7.906;2023-09-08T10:24:22;98341.00;;;27.40
20058;BMP180;10189;49.546;7.906;2023-09-08T10:27:10;98337.00;;;27.60
20058;BMP180;10189;49.546;7.906;2023-09-08T10:29:38;98335.00;;;27.60
20058;BMP180;10189;49.546;7.906;2023-09-08T10:32:07;98336.00;;;27.50
20058;BMP180;10189;49.546;7.906;2023-09-08T10:34:36;98336.00;;;27.60
20058;BMP180;10189;49.546;7.906;2023-09-08T10:37:02;98336.00;;;27.60
20058;BMP180;10189;49.546;7.906;2023-09-08T10:39:36;98330.00;;;27.70
20058;BMP180;10189;49.546;7.906;2023-09-08T10:44:56;98333.00;;;27.80
20058;BMP180;10189;49.546;7.906;2023-09-08T10:47:54;98333.00;;;27.70
20058;BMP180;10189;49.546;7.906;2023-09-08T10:50:34;98332.00;;;27.50
20058;BMP180;10189;49.546;7.906;2023-09-08T10:53:15;98329.00;;;27.60
20058;BMP180;10189;49.546;7.906;2023-09-08T10:55:41;98326.00;;;27.70
20058;BMP180;10189;49.546;7.906;2023-09-08T10:58:37;98331.00;;;27.90
20058;BMP180;10189;49.546;7.906;2023-09-08T11:01:05;98333.00;;;28.00
20058;BMP180;10189;49.546;7.906;2023-09-08T11:06:04;98329.00;;;28.20
20058;BMP180;10189;49.546;7.906;2023-09-08T11:08:32;98322.00;;;28.30
20058;BMP180;10189;49.546;7.906;2023-09-08T11:10:58;98330.00;;;28.50
20058;BMP180;10189;49.546;7.906;2023-09-08T11:13:24;98323.00;;;28.30
20058;BMP180;10189;49.546;7.906;2023-09-08T11:15:53;98327.00;;;28.50
20058;BMP180;10189;49.546;7.906;2023-09-08T11:18:33;98324.00;;;28.00
20058;BMP180;10189;49.546;7.906;2023-09-08T11:21:02;98323.00;;;28.20
20058;BMP180;10189;49.546;7.906;2023-09-08T11:23:29;98321.00;;;28.40
20058;BMP180;10189;49.546;7.906;2023-09-08T11:25:56;98320.00;;;28.60
20058;BMP180;10189;49.546;7.906;2023-09-08T11:28:24;98317.00;;;28.60
20058;BMP180;10189;49.546;7.906;2023-09-08T11:30:50;98319.00;;;28.60
20058;BMP180;10189;49.546;7.906;2023-09-08T11:33:18;98325.00;;;28.60
20058;BMP180;10189;49.546;7.906;2023-09-08T11:35:48;98313.00;;;28.40
20058;BMP180;10189;49.546;7.906;2023-09-08T11:38:35;98314.00;;;28.50
20058;BMP180;10189;49.546;7.906;2023-09-08T11:41:01;98314.00;;;28.80
20058;BMP180;10189;49.546;7.906;2023-09-08T11:43:29;98310.00;;;29.00
20058;BMP180;10189;49.546;7.906;2023-09-08T11:45:58;98310.00;;;29.00
20058;BMP180;10189;49.546;7.906;2023-09-08T11:48:25;98312.00;;;28.80
20058;BMP180;10189;49.546;7.906;2023-09-08T11:50:54;98313.00;;;29.00
20058;BMP180;10189;49.546;7.906;2023-09-08T11:53:24;98310.00;;;29.10
20058;BMP180;10189;49.546;7.906;2023-09-08T11:55:50;98310.00;;;29.10
20058;BMP180;10189;49.546;7.906;2023-09-08T11:58:19;98314.00;;;29.00
20058;BMP180;10189;49.546;7.906;2023-09-08T12:00:45;98314.00;;;29.20
20058;BMP180;10189;49.546;7.906;2023-09-08T12:03:15;98313.00;;;29.20
20058;BMP180;10189;49.546;7.906;2023-09-08T12:05:44;98311.00;;;29.20
20058;BMP180;10189;49.546;7.906;2023-09-08T12:08:15;98307.00;;;29.30
20058;BMP180;10189;49.546;7.906;2023-09-08T12:10:43;98307.00;;;29.30
20058;BMP180;10189;49.546;7.906;2023-09-08T12:13:09;98299.00;;;29.40
20058;BMP180;10189;49.546;7.906;2023-09-08T12:15:38;98305.00;;;29.20
20058;BMP180;10189;49.546;7.906;2023-09-08T12:18:06;98298.00;;;29.30
20058;BMP180;10189;49.546;7.906;2023-09-08T12:20:34;98308.00;;;29.30
20058;BMP180;10189;49.546;7.906;2023-09-08T12:23:14;98309.00;;;29.20
20058;BMP180;10189;49.546;7.906;2023-09-08T12:25:46;98306.00;;;29.20
20058;BMP180;10189;49.546;7.906;2023-09-08T12:28:12;98299.00;;;29.10
20058;BMP180;10189;49.546;7.906;2023-09-08T12:30:39;98309.00;;;29.10
20058;BMP180;10189;49.546;7.906;2023-09-08T12:33:05;98305.00;;;28.90
20058;BMP180;10189;49.546;7.906;2023-09-08T12:35:31;98297.00;;;29.00
20058;BMP180;10189;49.546;7.906;2023-09-08T12:38:04;98302.00;;;29.10
20058;BMP180;10189;49.546;7.906;2023-09-08T12:40:37;98296.00;;;29.20
20058;BMP180;10189;49.546;7.906;2023-09-08T12:43:05;98303.00;;;29.40
20058;BMP180;10189;49.546;7.906;2023-09-08T12:45:37;98297.00;;;29.60
20058;BMP180;10189;49.546;7.906;2023-09-08T12:48:03;98294.00;;;29.50
20058;BMP180;10189;49.546;7.906;2023-09-08T12:50:29;98288.00;;;29.60
20058;BMP180;10189;49.546;7.906;2023-09-08T12:52:55;98295.00;;;29.80
20058;BMP180;10189;49.546;7.906;2023-09-08T12:55:23;98295.00;;;29.70
20058;BMP180;10189;49.546;7.906;2023-09-08T12:57:50;98292.00;;;29.70
20058;BMP180;10189;49.546;7.906;2023-09-08T13:00:24;98295.00;;;29.90
20058;BMP180;10189;49.546;7.906;2023-09-08T13:02:50;98289.00;;;29.80
20058;BMP180;10189;49.546;7.906;2023-09-08T13:05:16;98287.00;;;29.70
20058;BMP180;10189;49.546;7.906;2023-09-08T13:07:43;98280.00;;;29.70
20058;BMP180;10189;49.546;7.906;2023-09-08T13:10:09;98281.00;;;29.80
20058;BMP180;10189;49.546;7.906;2023-09-08T13:12:34;98278.00;;;29.90
20058;BMP180;10189;49.546;7.906;2023-09-08T13:15:00;98270.00;;;29.90
20058;BMP180;10189;49.546;7.906;2023-09-08T13:17:26;98278.00;;;30.00
20058;BMP180;10189;49.546;7.906;2023-09-08T13:19:52;98274.00;;;29.90
20058;BMP180;10189;49.546;7.906;2023-09-08T13:22:19;98275.00;;;29.90
20058;BMP180;10189;49.546;7.906;2023-09-08T13:24:44;98273.00;;;29.90
20058;BMP180;10189;49.546;7.906;2023-09-08T13:27:10;98270.00;;;29.80
20058;BMP180;10189;49.546;7.906;2023-09-08T13:29:37;98269.00;;;30.00
20058;BMP180;10189;49.546;7.906;2023-09-08T13:32:04;98263.00;;;30.00
20058;BMP180;10189;49.546;7.906;2023-09-08T13:34:30;98275.00;;;30.10
20058;BMP180;10189;49.546;7.906;2023-09-08T13:36:56;98263.00;;;30.10
20058;BMP180;10189;49.546;7.906;2023-09-08T13:39:22;98263.00;;;30.10
20058;BMP180;10189;49.546;7.906;2023-09-08T13:41:50;98269.00;;;30.00
20058;BMP180;10189;49.546;7.906;2023-09-08T13:44:21;98266.00;;;30.10
20058;BMP180;10189;49.546;7.906;2023-09-08T13:46:48;98258.00;;;30.10
20058;BMP180;10189;49.546;7.906;2023-09-08T13:49:15;98260.00;;;30.10
20058;BMP180;10189;49.546;7.906;2023-09-08T13:51:41;98253.00;;;30.10
20058;BMP180;10189;49.546;7.906;2023-09-08T13:54:08;98267.00;;;30.00
20058;BMP180;10189;49.546;7.906;2023-09-08T13:56:35;98254.00;;;30.10
20058;BMP180;10189;49.546;7.906;2023-09-08T13:59:01;98263.00;;;30.10
20058;BMP180;10189;49.546;7.906;2023-09-08T14:01:27;98255.00;;;30.10
20058;BMP180;10189;49.546;7.906;2023-09-08T14:03:55;98256.00;;;30.20
20058;BMP180;10189;49.546;7.906;2023-09-08T14:06:23;98250.00;;;30.10
20058;BMP180;10189;49.546;7.906;2023-09-08T14:08:50;98250.00;;;30.20
20058;BMP180;10189;49.546;7.906;2023-09-08T14:11:16;98247.00;;;30.10
20058;BMP180;10189;49.546;7.906;2023-09-08T14:13:42;98244.00;;;30.20
20058;BMP180;10189;49.546;7.906;2023-09-08T14:16:09;98242.00;;;30.10
20058;BMP180;10189;49.546;7.906;2023-09-08T14:18:35;98246.00;;;30.10
20058;BMP180;10189;49.546;7.906;2023-09-08T14:21:01;98249.00;;;30.00
20058;BMP180;10189;49.546;7.906;2023-09-08T14:23:27;98248.00;;;29.90